sensor_id;sensor_type;location;lat;lon;timestamp;temperature;humidity
8947;DHT22;4508;48.790;9.028;2022-12-29T00:02:26;8.80;99.90
8947;DHT22;4508;48.790;9.028;2022-12-29T00:04:52;8.80;99.90
8947;DHT22;4508;48.790;9.028;2022-12-29T00:07:20;8.70;99.90
8947;DHT22;4508;48.790;9.028;2022-12-29T00:09:47;8.70;99.90
8947;DHT22;4508;48.790;9.028;2022-12-29T00:12:14;8.70;99.90
8947;DHT22;4508;48.790;9.028;2022-12-29T00:14:40;8.70;99.90
8947;DHT22;4508;48.790;9.028;2022-12-29T00:17:25;8.70;99.90
8947;DHT22;4508;48.790;9.028;2022-12-29T00:19:52;8.70;99.90
8947;DHT22;4508;48.790;9.028;2022-12-29T00:22:37;8.80;99.90
8947;DHT22;4508;48.790;9.028;2022-12-29T00:25:21;8.70;99.90
8947;DHT22;4508;48.790;9.028;2022-12-29T00:28:07;8.80;99.90
8947;DHT22;4508;48.790;9.028;2022-12-29T00:30:52;8.80;99.90
8947;DHT22;4508;48.790;9.028;2022-12-29T00:33:36;8.80;99.90
8947;DHT22;4508;48.790;9.028;2022-12-29T00:36:22;8.90;99.90
8947;DHT22;4508;48.790;9.028;2022-12-29T00:38:55;8.80;99.90
8947;DHT22;4508;48.790;9.028;2022-12-29T00:41:41;8.90;99.90
8947;DHT22;4508;48.790;9.028;2022-12-29T00:44:25;8.80;99.90
8947;DHT22;4508;48.790;9.028;2022-12-29T00:46:52;9.00;99.90
8947;DHT22;4508;48.790;9.028;2022-12-29T00:49:18;8.90;99.90
8947;DHT22;4508;48.790;9.028;2022-12-29T00:51:59;9.00;99.90
8947;DHT22;4508;48.790;9.028;2022-12-29T00:54:28;9.10;99.90
8947;DHT22;4508;48.790;9.028;2022-12-29T00:56:56;9.10;99.90
8947;DHT22;4508;48.790;9.028;2022-12-29T00:59:23;9.10;99.90
8947;DHT22;4508;48.790;9.028;2022-12-29T01:01:50;9.10;99.90
8947;DHT22;4508;48.790;9.028;2022-12-29T01:04:18;9.20;99.90
8947;DHT22;4508;48.790;9.028;2022-12-29T01:06:45;9.20;99.90
8947;DHT22;4508;48.790;9.028;2022-12-29T01:09:12;9.30;99.90
8947;DHT22;4508;48.790;9.028;2022-12-29T01:11:58;9.30;99.90
8947;DHT22;4508;48.790;9.028;2022-12-29T01:14:25;9.20;99.90
8947;DHT22;4508;48.790;9.028;2022-12-29T01:16:52;9.20;99.90
8947;DHT22;4508;48.790;9.028;2022-12-29T01:19:20;9.20;99.90
8947;DHT22;4508;48.790;9.028;2022-12-29T01:21:47;9.20;99.90
8947;DHT22;4508;48.790;9.028;2022-12-29T01:24:15;9.30;99.90
8947;DHT22;4508;48.790;9.028;2022-12-29T01:26:42;9.30;99.90
8947;DHT22;4508;48.790;9.028;2022-12-29T01:29:10;9.50;99.90
8947;DHT22;4508;48.790;9.028;2022-12-29T01:31:37;9.50;99.90
8947;DHT22;4508;48.790;9.028;2022-12-29T01:34:04;9.50;99.90
8947;DHT22;4508;48.790;9.028;2022-12-29T01:36:31;9.50;99.90
8947;DHT22;4508;48.790;9.028;2022-12-29T01:38:57;9.40;99.90
8947;DHT22;4508;48.790;9.028;2022-12-29T01:41:24;9.50;99.90
8947;DHT22;4508;48.790;9.028;2022-12-29T01:43:53;9.50;99.90
8947;DHT22;4508;48.790;9.028;2022-12-29T01:46:24;9.50;99.90
8947;DHT22;4508;48.790;9.028;2022-12-29T01:48:57;9.50;99.90
8947;DHT22;4508;48.790;9.028;2022-12-29T01:51:26;9.50;99.90
8947;DHT22;4508;48.790;9.028;2022-12-29T01:53:56;9.40;99.90
8947;DHT22;4508;48.790;9.028;2022-12-29T01:56:24;9.50;99.90
8947;DHT22;4508;48.790;9.028;2022-12-29T01:58:58;9.40;99.90
8947;DHT22;4508;48.790;9.028;2022-12-29T02:01:28;9.50;99.90
8947;DHT22;4508;48.790;9.028;2022-12-29T02:03:55;9.50;99.90
8947;DHT22;4508;48.790;9.028;2022-12-29T02:06:23;9.60;99.90
8947;DHT22;4508;48.790;9.028;2022-12-29T02:08:53;9.50;99.90
8947;DHT22;4508;48.790;9.028;2022-12-29T02:13:48;9.60;99.90
8947;DHT22;4508;48.790;9.028;2022-12-29T02:16:26;9.60;99.90
8947;DHT22;4508;48.790;9.028;2022-12-29T02:19:12;9.60;99.90
8947;DHT22;4508;48.790;9.028;2022-12-29T02:22:14;9.70;99.90
8947;DHT22;4508;48.790;9.028;2022-12-29T02:25:11;9.70;99.90
8947;DHT22;4508;48.790;9.028;2022-12-29T02:27:58;9.70;99.90
8947;DHT22;4508;48.790;9.028;2022-12-29T02:30:40;9.70;99.90
8947;DHT22;4508;48.790;9.028;2022-12-29T02:33:18;9.80;99.90
8947;DHT22;4508;48.790;9.028;2022-12-29T02:35:53;9.80;99.90
8947;DHT22;4508;48.790;9.028;2022-12-29T02:38:31;9.90;99.90
8947;DHT22;4508;48.790;9.028;2022-12-29T02:41:07;9.80;99.90
8947;DHT22;4508;48.790;9.028;2022-12-29T02:43:38;9.90;99.90
8947;DHT22;4508;48.790;9.028;2022-12-29T02:46:12;10.00;99.90
8947;DHT22;4508;48.790;9.028;2022-12-29T02:48:47;10.00;99.90
8947;DHT22;4508;48.790;9.028;2022-12-29T02:51:20;9.90;99.90
8947;DHT22;4508;48.790;9.028;2022-12-29T02:53:48;9.80;99.90
8947;DHT22;4508;48.790;9.028;2022-12-29T02:56:32;10.00;99.90
8947;DHT22;4508;48.790;9.028;2022-12-29T02:58:59;9.90;99.90
8947;DHT22;4508;48.790;9.028;2022-12-29T03:01:40;9.90;99.90
8947;DHT22;4508;48.790;9.028;2022-12-29T03:04:36;10.10;99.90
8947;DHT22;4508;48.790;9.028;2022-12-29T03:07:11;10.00;99.90
8947;DHT22;4508;48.790;9.028;2022-12-29T03:09:46;9.90;99.90
8947;DHT22;4508;48.790;9.028;2022-12-29T03:12:24;10.00;99.90
8947;DHT22;4508;48.790;9.028;2022-12-29T03:15:15;10.10;99.90
8947;DHT22;4508;48.790;9.028;2022-12-29T03:18:10;10.00;99.90
8947;DHT22;4508;48.790;9.028;2022-12-29T03:20:46;10.10;99.90
8947;DHT22;4508;48.790;9.028;2022-12-29T03:23:16;10.00;99.90
8947;DHT22;4508;48.790;9.028;2022-12-29T03:25:46;10.00;99.90
8947;DHT22;4508;48.790;9.028;2022-12-29T03:28:17;10.00;99.90
8947;DHT22;4508;48.790;9.028;2022-12-29T03:30:45;10.00;99.90
8947;DHT22;4508;48.790;9.028;2022-12-29T03:33:17;10.10;99.90
8947;DHT22;4508;48.790;9.028;2022-12-29T03:35:46;10.10;99.90
8947;DHT22;4508;48.790;9.028;2022-12-29T03:38:16;10.20;99.90
8947;DHT22;4508;48.790;9.028;2022-12-29T03:40:46;10.20;99.90
8947;DHT22;4508;48.790;9.028;2022-12-29T03:43:21;10.10;99.90
8947;DHT22;4508;48.790;9.028;2022-12-29T03:45:48;10.10;99.90
8947;DHT22;4508;48.790;9.028;2022-12-29T03:48:16;10.20;99.90
8947;DHT22;4508;48.790;9.028;2022-12-29T03:50:43;10.10;99.90
8947;DHT22;4508;48.790;9.028;2022-12-29T03:53:10;10.00;99.90
8947;DHT22;4508;48.790;9.028;2022-12-29T03:55:36;9.90;99.90
8947;DHT22;4508;48.790;9.028;2022-12-29T03:58:03;10.00;99.90
8947;DHT22;4508;48.790;9.028;2022-12-29T04:00:30;9.80;99.90
8947;DHT22;4508;48.790;9.028;2022-12-29T04:02:56;9.70;99.90
8947;DHT22;4508;48.790;9.028;2022-12-29T04:05:24;9.70;99.90
8947;DHT22;4508;48.790;9.028;2022-12-29T04:07:51;9.60;99.90
8947;DHT22;4508;48.790;9.028;2022-12-29T04:10:18;9.70;99.90
8947;DHT22;4508;48.790;9.028;2022-12-29T04:12:45;9.80;99.90
8947;DHT22;4508;48.790;9.028;2022-12-29T04:15:12;9.60;99.90
8947;DHT22;4508;48.790;9.028;2022-12-29T04:17:39;9.50;99.90
8947;DHT22;4508;48.790;9.028;2022-12-29T04:20:06;9.60;99.90
8947;DHT22;4508;48.790;9.028;2022-12-29T04:22:59;9.60;99.90
8947;DHT22;4508;48.790;9.028;2022-12-29T04:25:25;9.40;99.90
8947;DHT22;4508;48.790;9.028;2022-12-29T04:27:52;9.50;99.90
8947;DHT22;4508;48.790;9.028;2022-12-29T04:30:19;9.60;99.90
8947;DHT22;4508;48.790;9.028;2022-12-29T04:32:46;9.70;99.90
8947;DHT22;4508;48.790;9.028;2022-12-29T04:35:13;9.70;99.90
8947;DHT22;4508;48.790;9.028;2022-12-29T04:37:39;9.70;99.90
8947;DHT22;4508;48.790;9.028;2022-12-29T04:40:09;9.60;99.90
8947;DHT22;4508;48.790;9.028;2022-12-29T04:42:36;9.70;99.90
8947;DHT22;4508;48.790;9.028;2022-12-29T04:45:03;9.70;99.90
8947;DHT22;4508;48.790;9.028;2022-12-29T04:47:30;9.60;99.90
8947;DHT22;4508;48.790;9.028;2022-12-29T04:49:56;9.60;99.90
8947;DHT22;4508;48.790;9.028;2022-12-29T04:52:23;9.50;99.90
8947;DHT22;4508;48.790;9.028;2022-12-29T04:54:50;9.70;99.90
8947;DHT22;4508;48.790;9.028;2022-12-29T04:57:18;9.60;99.90
8947;DHT22;4508;48.790;9.028;2022-12-29T04:59:44;9.60;99.90
8947;DHT22;4508;48.790;9.028;2022-12-29T05:02:11;9.80;99.90
8947;DHT22;4508;48.790;9.028;2022-12-29T05:04:38;9.60;99.90
8947;DHT22;4508;48.790;9.028;2022-12-29T05:07:04;9.70;99.90
8947;DHT22;4508;48.790;9.028;2022-12-29T05:09:31;9.70;99.90
8947;DHT22;4508;48.790;9.028;2022-12-29T05:11:58;9.60;99.90
8947;DHT22;4508;48.790;9.028;2022-12-29T05:14:26;9.60;99.90
8947;DHT22;4508;48.790;9.028;2022-12-29T05:16:53;9.70;99.90
8947;DHT22;4508;48.790;9.028;2022-12-29T05:19:19;9.50;99.90
8947;DHT22;4508;48.790;9.028;2022-12-29T05:21:46;9.70;99.90
8947;DHT22;4508;48.790;9.028;2022-12-29T05:24:13;9.70;99.90
8947;DHT22;4508;48.790;9.028;2022-12-29T05:26:40;9.80;99.90
8947;DHT22;4508;48.790;9.028;2022-12-29T05:29:07;9.80;99.90
8947;DHT22;4508;48.790;9.028;2022-12-29T05:31:35;9.70;99.90
8947;DHT22;4508;48.790;9.028;2022-12-29T05:34:02;10.00;99.90
8947;DHT22;4508;48.790;9.028;2022-12-29T05:36:29;9.90;99.90
8947;DHT22;4508;48.790;9.028;2022-12-29T05:38:55;10.30;99.90
8947;DHT22;4508;48.790;9.028;2022-12-29T05:41:22;10.20;99.90
8947;DHT22;4508;48.790;9.028;2022-12-29T05:43:49;10.10;99.90
8947;DHT22;4508;48.790;9.028;2022-12-29T05:46:15;10.10;99.90
8947;DHT22;4508;48.790;9.028;2022-12-29T05:48:43;10.20;99.90
8947;DHT22;4508;48.790;9.028;2022-12-29T05:51:10;10.20;99.90
8947;DHT22;4508;48.790;9.028;2022-12-29T05:53:37;10.20;99.90
8947;DHT22;4508;48.790;9.028;2022-12-29T05:56:04;10.20;99.90
8947;DHT22;4508;48.790;9.028;2022-12-29T05:58:31;10.20;99.90
8947;DHT22;4508;48.790;9.028;2022-12-29T06:00:58;10.30;99.90
8947;DHT22;4508;48.790;9.028;2022-12-29T06:03:24;10.40;99.90
8947;DHT22;4508;48.790;9.028;2022-12-29T06:05:52;10.30;99.90
8947;DHT22;4508;48.790;9.028;2022-12-29T06:08:19;10.30;99.90
8947;DHT22;4508;48.790;9.028;2022-12-29T06:10:46;10.30;99.90
8947;DHT22;4508;48.790;9.028;2022-12-29T06:13:13;10.10;99.90
8947;DHT22;4508;48.790;9.028;2022-12-29T06:15:39;10.10;99.90
8947;DHT22;4508;48.790;9.028;2022-12-29T06:18:06;10.10;99.90
8947;DHT22;4508;48.790;9.028;2022-12-29T06:20:33;10.10;99.90
8947;DHT22;4508;48.790;9.028;2022-12-29T06:23:01;9.90;99.90
8947;DHT22;4508;48.790;9.028;2022-12-29T06:25:28;10.10;99.90
8947;DHT22;4508;48.790;9.028;2022-12-29T06:27:57;10.10;99.90
8947;DHT22;4508;48.790;9.028;2022-12-29T06:30:24;10.10;99.90
8947;DHT22;4508;48.790;9.028;2022-12-29T06:32:50;10.00;99.90
8947;DHT22;4508;48.790;9.028;2022-12-29T06:35:17;10.10;99.90
8947;DHT22;4508;48.790;9.028;2022-12-29T06:37:44;10.00;99.90
8947;DHT22;4508;48.790;9.028;2022-12-29T06:40:12;10.00;99.90
8947;DHT22;4508;48.790;9.028;2022-12-29T06:42:39;10.00;99.90
8947;DHT22;4508;48.790;9.028;2022-12-29T06:45:06;9.80;99.90
8947;DHT22;4508;48.790;9.028;2022-12-29T06:47:33;9.80;99.90
8947;DHT22;4508;48.790;9.028;2022-12-29T06:50:00;10.00;99.90
8947;DHT22;4508;48.790;9.028;2022-12-29T06:52:27;10.00;99.90
8947;DHT22;4508;48.790;9.028;2022-12-29T06:54:54;9.90;99.90
8947;DHT22;4508;48.790;9.028;2022-12-29T06:57:22;10.00;99.90
8947;DHT22;4508;48.790;9.028;2022-12-29T06:59:49;10.10;99.90
8947;DHT22;4508;48.790;9.028;2022-12-29T07:02:16;10.00;99.90
8947;DHT22;4508;48.790;9.028;2022-12-29T07:04:43;10.30;99.90
8947;DHT22;4508;48.790;9.028;2022-12-29T07:07:10;10.10;99.90
8947;DHT22;4508;48.790;9.028;2022-12-29T07:09:37;9.90;99.90
8947;DHT22;4508;48.790;9.028;2022-12-29T07:12:04;10.00;99.90
8947;DHT22;4508;48.790;9.028;2022-12-29T07:14:32;10.00;99.90
8947;DHT22;4508;48.790;9.028;2022-12-29T07:16:59;10.00;99.90
8947;DHT22;4508;48.790;9.028;2022-12-29T07:19:26;10.10;99.90
8947;DHT22;4508;48.790;9.028;2022-12-29T07:21:54;9.90;99.90
8947;DHT22;4508;48.790;9.028;2022-12-29T07:24:20;9.80;99.90
8947;DHT22;4508;48.790;9.028;2022-12-29T07:26:47;9.80;99.90
8947;DHT22;4508;48.790;9.028;2022-12-29T07:29:14;9.80;99.90
8947;DHT22;4508;48.790;9.028;2022-12-29T07:31:42;9.70;99.90
8947;DHT22;4508;48.790;9.028;2022-12-29T07:34:09;9.70;99.90
8947;DHT22;4508;48.790;9.028;2022-12-29T07:36:35;9.70;99.90
8947;DHT22;4508;48.790;9.028;2022-12-29T07:39:02;9.70;99.90
8947;DHT22;4508;48.790;9.028;2022-12-29T07:41:29;9.80;99.90
8947;DHT22;4508;48.790;9.028;2022-12-29T07:43:56;9.60;99.90
8947;DHT22;4508;48.790;9.028;2022-12-29T07:46:22;9.60;99.90
8947;DHT22;4508;48.790;9.028;2022-12-29T07:48:50;9.80;99.90
8947;DHT22;4508;48.790;9.028;2022-12-29T07:51:17;9.70;99.90
8947;DHT22;4508;48.790;9.028;2022-12-29T07:53:44;9.70;99.90
8947;DHT22;4508;48.790;9.028;2022-12-29T07:56:10;9.60;99.90
8947;DHT22;4508;48.790;9.028;2022-12-29T07:58:37;9.80;99.90
8947;DHT22;4508;48.790;9.028;2022-12-29T08:01:04;9.80;99.90
8947;DHT22;4508;48.790;9.028;2022-12-29T08:03:31;9.80;99.90
8947;DHT22;4508;48.790;9.028;2022-12-29T08:05:59;9.80;99.90
8947;DHT22;4508;48.790;9.028;2022-12-29T08:08:26;9.80;99.90
8947;DHT22;4508;48.790;9.028;2022-12-29T08:10:52;9.80;99.90
8947;DHT22;4508;48.790;9.028;2022-12-29T08:13:19;9.80;99.90
8947;DHT22;4508;48.790;9.028;2022-12-29T08:15:45;9.80;99.90
8947;DHT22;4508;48.790;9.028;2022-12-29T08:18:12;9.90;99.90
8947;DHT22;4508;48.790;9.028;2022-12-29T08:20:39;9.90;99.90
8947;DHT22;4508;48.790;9.028;2022-12-29T08:23:07;9.90;99.90
8947;DHT22;4508;48.790;9.028;2022-12-29T08:25:34;10.00;99.90
8947;DHT22;4508;48.790;9.028;2022-12-29T08:28:00;10.00;99.90
8947;DHT22;4508;48.790;9.028;2022-12-29T08:30:27;10.00;99.90
8947;DHT22;4508;48.790;9.028;2022-12-29T08:32:54;10.10;99.90
8947;DHT22;4508;48.790;9.028;2022-12-29T08:35:20;10.10;99.90
8947;DHT22;4508;48.790;9.028;2022-12-29T08:37:47;10.20;99.90
8947;DHT22;4508;48.790;9.028;2022-12-29T08:40:15;10.20;99.90
8947;DHT22;4508;48.790;9.028;2022-12-29T08:42:42;10.20;99.90
8947;DHT22;4508;48.790;9.028;2022-12-29T08:45:10;10.20;99.90
8947;DHT22;4508;48.790;9.028;2022-12-29T08:47:37;10.40;99.90
8947;DHT22;4508;48.790;9.028;2022-12-29T08:50:04;10.40;99.90
8947;DHT22;4508;48.790;9.028;2022-12-29T08:52:31;10.50;99.90
8947;DHT22;4508;48.790;9.028;2022-12-29T08:54:58;10.60;99.90
8947;DHT22;4508;48.790;9.028;2022-12-29T08:57:26;10.60;99.90
8947;DHT22;4508;48.790;9.028;2022-12-29T08:59:52;10.80;99.90
8947;DHT22;4508;48.790;9.028;2022-12-29T09:02:19;10.70;99.90
8947;DHT22;4508;48.790;9.028;2022-12-29T09:04:46;11.00;99.90
8947;DHT22;4508;48.790;9.028;2022-12-29T09:07:12;11.20;99.90
8947;DHT22;4508;48.790;9.028;2022-12-29T09:09:39;11.10;99.90
8947;DHT22;4508;48.790;9.028;2022-12-29T09:12:06;10.80;99.90
8947;DHT22;4508;48.790;9.028;2022-12-29T09:14:34;10.80;99.90
8947;DHT22;4508;48.790;9.028;2022-12-29T09:17:00;10.80;99.90
8947;DHT22;4508;48.790;9.028;2022-12-29T09:19:45;11.00;99.90
8947;DHT22;4508;48.790;9.028;2022-12-29T09:22:11;11.30;99.90
8947;DHT22;4508;48.790;9.028;2022-12-29T09:24:38;12.20;99.90
8947;DHT22;4508;48.790;9.028;2022-12-29T09:27:05;11.80;99.90
8947;DHT22;4508;48.790;9.028;2022-12-29T09:29:31;11.70;99.90
8947;DHT22;4508;48.790;9.028;2022-12-29T09:32:00;11.70;99.90
8947;DHT22;4508;48.790;9.028;2022-12-29T09:34:27;11.80;99.90
8947;DHT22;4508;48.790;9.028;2022-12-29T09:36:54;11.80;99.90
8947;DHT22;4508;48.790;9.028;2022-12-29T09:39:21;11.80;99.90
8947;DHT22;4508;48.790;9.028;2022-12-29T09:41:55;11.80;99.90
8947;DHT22;4508;48.790;9.028;2022-12-29T09:44:28;11.90;99.90
8947;DHT22;4508;48.790;9.028;2022-12-29T09:46:57;11.90;99.90
8947;DHT22;4508;48.790;9.028;2022-12-29T09:49:30;11.90;99.90
8947;DHT22;4508;48.790;9.028;2022-12-29T09:52:03;12.80;99.90
8947;DHT22;4508;48.790;9.028;2022-12-29T09:54:41;12.50;99.90
8947;DHT22;4508;48.790;9.028;2022-12-29T09:57:16;12.30;99.90
8947;DHT22;4508;48.790;9.028;2022-12-29T09:59:45;12.20;99.90
8947;DHT22;4508;48.790;9.028;2022-12-29T10:02:28;12.10;99.90
8947;DHT22;4508;48.790;9.028;2022-12-29T10:04:57;12.00;99.90
8947;DHT22;4508;48.790;9.028;2022-12-29T10:07:31;12.00;99.90
8947;DHT22;4508;48.790;9.028;2022-12-29T10:10:09;11.90;99.90
8947;DHT22;4508;48.790;9.028;2022-12-29T10:12:55;11.90;99.90
8947;DHT22;4508;48.790;9.028;2022-12-29T10:15:35;11.90;99.90
8947;DHT22;4508;48.790;9.028;2022-12-29T10:18:15;11.90;99.90
8947;DHT22;4508;48.790;9.028;2022-12-29T10:20:53;11.90;99.90
8947;DHT22;4508;48.790;9.028;2022-12-29T10:23:26;11.90;99.90
8947;DHT22;4508;48.790;9.028;2022-12-29T10:25:55;11.90;99.90
8947;DHT22;4508;48.790;9.028;2022-12-29T10:28:24;11.90;99.90
8947;DHT22;4508;48.790;9.028;2022-12-29T10:30:56;12.00;99.90
8947;DHT22;4508;48.790;9.028;2022-12-29T10:33:32;12.10;99.90
8947;DHT22;4508;48.790;9.028;2022-12-29T10:36:14;14.00;99.90
8947;DHT22;4508;48.790;9.028;2022-12-29T10:38:45;13.50;99.90
8947;DHT22;4508;48.790;9.028;2022-12-29T10:41:20;13.30;99.90
8947;DHT22;4508;48.790;9.028;2022-12-29T10:43:49;13.20;99.90
8947;DHT22;4508;48.790;9.028;2022-12-29T10:46:19;12.90;99.90
8947;DHT22;4508;48.790;9.028;2022-12-29T10:48:47;13.10;99.90
8947;DHT22;4508;48.790;9.028;2022-12-29T10:51:20;13.20;99.90
8947;DHT22;4508;48.790;9.028;2022-12-29T10:53:51;13.00;99.90
8947;DHT22;4508;48.790;9.028;2022-12-29T10:56:27;14.60;99.90
8947;DHT22;4508;48.790;9.028;2022-12-29T10:58:56;13.60;99.90
8947;DHT22;4508;48.790;9.028;2022-12-29T11:01:27;13.20;99.90
8947;DHT22;4508;48.790;9.028;2022-12-29T11:04:02;12.80;99.90
8947;DHT22;4508;48.790;9.028;2022-12-29T11:06:31;12.70;99.90
8947;DHT22;4508;48.790;9.028;2022-12-29T11:09:02;12.60;99.90
8947;DHT22;4508;48.790;9.028;2022-12-29T11:11:35;12.60;99.90
8947;DHT22;4508;48.790;9.028;2022-12-29T11:14:11;12.60;99.90
8947;DHT22;4508;48.790;9.028;2022-12-29T11:16:38;12.50;99.90
8947;DHT22;4508;48.790;9.028;2022-12-29T11:19:19;12.60;99.90
8947;DHT22;4508;48.790;9.028;2022-12-29T11:21:48;12.50;99.90
8947;DHT22;4508;48.790;9.028;2022-12-29T11:24:21;12.50;99.90
8947;DHT22;4508;48.790;9.028;2022-12-29T11:26:49;12.40;99.90
8947;DHT22;4508;48.790;9.028;2022-12-29T11:29:23;12.40;99.90
8947;DHT22;4508;48.790;9.028;2022-12-29T11:31:51;12.30;99.90
8947;DHT22;4508;48.790;9.028;2022-12-29T11:34:20;12.30;99.90
8947;DHT22;4508;48.790;9.028;2022-12-29T11:36:49;12.20;99.90
8947;DHT22;4508;48.790;9.028;2022-12-29T11:39:36;12.10;99.90
8947;DHT22;4508;48.790;9.028;2022-12-29T11:42:06;12.10;99.90
8947;DHT22;4508;48.790;9.028;2022-12-29T11:44:43;12.00;99.90
8947;DHT22;4508;48.790;9.028;2022-12-29T11:47:23;12.00;99.90
8947;DHT22;4508;48.790;9.028;2022-12-29T11:49:52;11.90;99.90
8947;DHT22;4508;48.790;9.028;2022-12-29T11:52:29;11.80;99.90
8947;DHT22;4508;48.790;9.028;2022-12-29T11:54:59;11.50;99.90
8947;DHT22;4508;48.790;9.028;2022-12-29T11:57:27;11.30;99.90
8947;DHT22;4508;48.790;9.028;2022-12-29T11:59:54;11.10;99.90
8947;DHT22;4508;48.790;9.028;2022-12-29T12:02:35;11.10;99.90
8947;DHT22;4508;48.790;9.028;2022-12-29T12:05:08;10.90;99.90
8947;DHT22;4508;48.790;9.028;2022-12-29T12:07:44;10.80;99.90
8947;DHT22;4508;48.790;9.028;2022-12-29T12:10:20;10.80;99.90
8947;DHT22;4508;48.790;9.028;2022-12-29T12:12:52;10.80;99.90
8947;DHT22;4508;48.790;9.028;2022-12-29T12:15:23;10.90;99.90
8947;DHT22;4508;48.790;9.028;2022-12-29T12:17:54;10.90;99.90
8947;DHT22;4508;48.790;9.028;2022-12-29T12:20:25;10.90;99.90
8947;DHT22;4508;48.790;9.028;2022-12-29T12:22:58;10.90;99.90
8947;DHT22;4508;48.790;9.028;2022-12-29T12:25:31;10.90;99.90
8947;DHT22;4508;48.790;9.028;2022-12-29T12:28:04;11.00;99.90
8947;DHT22;4508;48.790;9.028;2022-12-29T12:30:38;11.00;99.90
8947;DHT22;4508;48.790;9.028;2022-12-29T12:33:16;11.10;99.90
8947;DHT22;4508;48.790;9.028;2022-12-29T12:35:48;11.20;99.90
8947;DHT22;4508;48.790;9.028;2022-12-29T12:38:26;11.30;99.90
8947;DHT22;4508;48.790;9.028;2022-12-29T12:41:04;11.30;99.90
8947;DHT22;4508;48.790;9.028;2022-12-29T12:43:37;11.60;99.90
8947;DHT22;4508;48.790;9.028;2022-12-29T12:46:18;13.00;99.90
8947;DHT22;4508;48.790;9.028;2022-12-29T12:48:59;14.00;99.90
8947;DHT22;4508;48.790;9.028;2022-12-29T12:51:38;12.30;99.90
8947;DHT22;4508;48.790;9.028;2022-12-29T12:54:23;12.20;99.90
8947;DHT22;4508;48.790;9.028;2022-12-29T12:57:02;13.70;99.90
8947;DHT22;4508;48.790;9.028;2022-12-29T12:59:42;13.40;99.90
8947;DHT22;4508;48.790;9.028;2022-12-29T13:02:23;14.30;99.90
8947;DHT22;4508;48.790;9.028;2022-12-29T13:05:06;14.50;99.90
8947;DHT22;4508;48.790;9.028;2022-12-29T13:07:43;13.20;99.90
8947;DHT22;4508;48.790;9.028;2022-12-29T13:10:41;13.10;99.90
8947;DHT22;4508;48.790;9.028;2022-12-29T13:13:34;12.90;99.90
8947;DHT22;4508;48.790;9.028;2022-12-29T13:16:06;12.60;99.90
8947;DHT22;4508;48.790;9.028;2022-12-29T13:18:45;12.40;99.90
8947;DHT22;4508;48.790;9.028;2022-12-29T13:21:24;12.20;99.90
8947;DHT22;4508;48.790;9.028;2022-12-29T13:23:58;12.10;99.90
8947;DHT22;4508;48.790;9.028;2022-12-29T13:26:32;11.90;99.90
8947;DHT22;4508;48.790;9.028;2022-12-29T13:29:06;11.70;99.90
8947;DHT22;4508;48.790;9.028;2022-12-29T13:31:43;11.70;99.90
8947;DHT22;4508;48.790;9.028;2022-12-29T13:34:17;11.60;99.90
8947;DHT22;4508;48.790;9.028;2022-12-29T13:36:49;11.50;99.90
8947;DHT22;4508;48.790;9.028;2022-12-29T13:39:21;11.50;99.90
8947;DHT22;4508;48.790;9.028;2022-12-29T13:41:52;11.50;99.90
8947;DHT22;4508;48.790;9.028;2022-12-29T13:44:23;11.50;99.90
8947;DHT22;4508;48.790;9.028;2022-12-29T13:46:51;11.50;99.90
8947;DHT22;4508;48.790;9.028;2022-12-29T13:49:20;11.40;99.90
8947;DHT22;4508;48.790;9.028;2022-12-29T13:51:49;11.30;99.90
8947;DHT22;4508;48.790;9.028;2022-12-29T13:54:27;11.30;99.90
8947;DHT22;4508;48.790;9.028;2022-12-29T13:57:05;11.30;99.90
8947;DHT22;4508;48.790;9.028;2022-12-29T13:59:40;11.30;99.90
8947;DHT22;4508;48.790;9.028;2022-12-29T14:02:19;11.30;99.90
8947;DHT22;4508;48.790;9.028;2022-12-29T14:04:57;11.40;99.90
8947;DHT22;4508;48.790;9.028;2022-12-29T14:07:24;11.80;99.90
8947;DHT22;4508;48.790;9.028;2022-12-29T14:09:52;11.60;99.90
8947;DHT22;4508;48.790;9.028;2022-12-29T14:12:30;11.60;99.90
8947;DHT22;4508;48.790;9.028;2022-12-29T14:15:06;11.60;99.90
8947;DHT22;4508;48.790;9.028;2022-12-29T14:17:40;11.60;99.90
8947;DHT22;4508;48.790;9.028;2022-12-29T14:20:17;11.50;99.90
8947;DHT22;4508;48.790;9.028;2022-12-29T14:22:56;11.40;99.90
8947;DHT22;4508;48.790;9.028;2022-12-29T14:25:51;11.80;99.90
8947;DHT22;4508;48.790;9.028;2022-12-29T14:28:24;12.00;99.90
8947;DHT22;4508;48.790;9.028;2022-12-29T14:30:53;11.80;99.90
8947;DHT22;4508;48.790;9.028;2022-12-29T14:33:21;11.80;99.90
8947;DHT22;4508;48.790;9.028;2022-12-29T14:35:49;11.70;99.90
8947;DHT22;4508;48.790;9.028;2022-12-29T14:38:30;11.40;99.90
8947;DHT22;4508;48.790;9.028;2022-12-29T14:44:02;11.20;99.90
8947;DHT22;4508;48.790;9.028;2022-12-29T14:46:49;11.10;99.90
8947;DHT22;4508;48.790;9.028;2022-12-29T14:49:22;11.10;99.90
8947;DHT22;4508;48.790;9.028;2022-12-29T14:51:51;11.00;99.90
8947;DHT22;4508;48.790;9.028;2022-12-29T14:54:41;10.90;99.90
8947;DHT22;4508;48.790;9.028;2022-12-29T14:57:14;11.00;99.90
8947;DHT22;4508;48.790;9.028;2022-12-29T14:59:43;10.90;99.90
8947;DHT22;4508;48.790;9.028;2022-12-29T15:02:16;10.80;99.90
8947;DHT22;4508;48.790;9.028;2022-12-29T15:04:44;10.80;99.90
8947;DHT22;4508;48.790;9.028;2022-12-29T15:07:11;10.70;99.90
8947;DHT22;4508;48.790;9.028;2022-12-29T15:09:42;10.60;99.90
8947;DHT22;4508;48.790;9.028;2022-12-29T15:12:19;10.50;99.90
8947;DHT22;4508;48.790;9.028;2022-12-29T15:14:54;10.40;99.90
8947;DHT22;4508;48.790;9.028;2022-12-29T15:17:26;10.40;99.90
8947;DHT22;4508;48.790;9.028;2022-12-29T15:19:54;10.40;99.90
8947;DHT22;4508;48.790;9.028;2022-12-29T15:22:21;10.30;99.90
8947;DHT22;4508;48.790;9.028;2022-12-29T15:24:50;10.30;99.90
8947;DHT22;4508;48.790;9.028;2022-12-29T15:27:20;10.30;99.90
8947;DHT22;4508;48.790;9.028;2022-12-29T15:29:47;10.20;99.90
8947;DHT22;4508;48.790;9.028;2022-12-29T15:32:23;10.20;99.90
8947;DHT22;4508;48.790;9.028;2022-12-29T15:34:52;10.30;99.90
8947;DHT22;4508;48.790;9.028;2022-12-29T15:37:21;10.30;99.90
8947;DHT22;4508;48.790;9.028;2022-12-29T15:39:49;10.30;99.90
8947;DHT22;4508;48.790;9.028;2022-12-29T15:45:11;9.80;99.90
8947;DHT22;4508;48.790;9.028;2022-12-29T15:47:42;9.50;99.90
8947;DHT22;4508;48.790;9.028;2022-12-29T15:50:19;9.30;99.90
8947;DHT22;4508;48.790;9.028;2022-12-29T15:52:46;9.30;99.90
8947;DHT22;4508;48.790;9.028;2022-12-29T15:55:20;9.10;99.90
8947;DHT22;4508;48.790;9.028;2022-12-29T15:57:47;9.10;99.90
8947;DHT22;4508;48.790;9.028;2022-12-29T16:00:22;9.00;99.90
8947;DHT22;4508;48.790;9.028;2022-12-29T16:02:51;8.90;99.90
8947;DHT22;4508;48.790;9.028;2022-12-29T16:05:19;8.90;99.90
8947;DHT22;4508;48.790;9.028;2022-12-29T16:07:52;8.80;99.90
8947;DHT22;4508;48.790;9.028;2022-12-29T16:10:30;8.80;99.90
8947;DHT22;4508;48.790;9.028;2022-12-29T16:13:12;8.60;99.90
8947;DHT22;4508;48.790;9.028;2022-12-29T16:15:45;8.70;99.90
8947;DHT22;4508;48.790;9.028;2022-12-29T16:18:21;9.10;99.90
8947;DHT22;4508;48.790;9.028;2022-12-29T16:20:50;9.10;99.90
8947;DHT22;4508;48.790;9.028;2022-12-29T16:23:19;8.60;99.90
8947;DHT22;4508;48.790;9.028;2022-12-29T16:25:48;8.50;99.90
8947;DHT22;4508;48.790;9.028;2022-12-29T16:28:18;8.60;99.90
8947;DHT22;4508;48.790;9.028;2022-12-29T16:30:46;8.70;99.90
8947;DHT22;4508;48.790;9.028;2022-12-29T16:33:36;8.50;99.90
8947;DHT22;4508;48.790;9.028;2022-12-29T16:36:26;8.80;99.90
8947;DHT22;4508;48.790;9.028;2022-12-29T16:39:11;8.10;99.90
8947;DHT22;4508;48.790;9.028;2022-12-29T16:41:46;8.30;99.90
8947;DHT22;4508;48.790;9.028;2022-12-29T16:44:16;8.70;99.90